Time;durP1;ratioP1;P1;durP2;ratioP2;P2;SDS_P1;SDS_P2;PMS_P1;PMS_P2;Temp;Humidity;BMP_temperature;BMP_pressure;BME280_temperature;BME280_humidity;BME280_pressure;Samples;Min_cycle;Max_cycle;Signal;HPM_P1;HPM_P2
2022/04/11 00:00:27;;;;;;;2.62;2.42;;;1.70;99.90;;;;;;486734;244;27522;-74
2022/04/11 00:02:27;;;;;;;2.97;2.50;;;1.80;99.90;;;;;;486723;244;27533;-73
2022/04/11 00:04:29;;;;;;;2.45;2.20;;;1.90;99.90;;;;;;486723;239;27456;-72
2022/04/11 00:06:30;;;;;;;2.50;2.40;;;1.90;99.90;;;;;;486725;244;27869;-73
2022/04/11 00:08:31;;;;;;;2.20;2.10;;;2.10;99.90;;;;;;486715;244;28040;-75
2022/04/11 00:10:32;;;;;;;2.97;2.67;;;2.10;99.90;;;;;;486731;244;27926;-73
2022/04/11 00:12:39;;;;;;;2.67;2.30;;;2.20;99.90;;;;;;486743;244;27969;-72
2022/04/11 00:14:41;;;;;;;3.60;3.12;;;2.20;99.90;;;;;;486746;244;27395;-73
2022/04/11 00:16:48;;;;;;;2.70;2.60;;;2.10;99.90;;;;;;486717;244;27431;-72
2022/04/11 00:18:49;;;;;;;3.00;2.80;;;2.10;99.90;;;;;;486726;244;27492;-73
2022/04/11 00:20:50;;;;;;;2.78;2.58;;;2.20;99.90;;;;;;486713;244;27407;-72
2022/04/11 00:22:52;;;;;;;2.70;2.40;;;2.20;99.90;;;;;;486736;244;27471;-73
2022/04/11 00:24:53;;;;;;;2.45;2.20;;;2.10;99.90;;;;;;486726;244;27491;-73
2022/04/11 00:26:54;;;;;;;2.67;2.25;;;2.10;99.90;;;;;;486731;244;27449;-73
2022/04/11 00:28:56;;;;;;;2.50;2.30;;;2.20;99.90;;;;;;486733;242;28037;-73
2022/04/11 00:31:00;;;;;;;2.58;2.47;;;2.20;99.90;;;;;;486740;244;28051;-73
2022/04/11 00:33:01;;;;;;;2.97;2.78;;;2.20;99.90;;;;;;486738;244;27469;-72
2022/04/11 00:35:02;;;;;;;2.10;2.00;;;2.20;99.90;;;;;;486729;244;27468;-73
2022/04/11 00:37:04;;;;;;;2.20;2.10;;;2.30;99.90;;;;;;486738;244;27903;-73
2022/04/11 00:39:08;;;;;;;2.42;2.33;;;2.30;99.90;;;;;;486748;244;28001;-73
2022/04/11 00:41:09;;;;;;;2.47;2.35;;;2.30;99.90;;;;;;486769;244;27551;-73
2022/04/11 00:43:10;;;;;;;2.40;2.30;;;2.30;99.90;;;;;;486759;244;27440;-73
2022/04/11 00:45:12;;;;;;;2.60;2.40;;;2.40;99.90;;;;;;486745;244;27405;-73
2022/04/11 00:47:19;;;;;;;2.70;2.50;;;2.40;99.90;;;;;;486714;244;28053;-73
2022/04/11 00:49:20;;;;;;;2.70;2.60;;;2.50;99.90;;;;;;486729;244;27439;-73
2022/04/11 00:51:21;;;;;;;2.90;2.70;;;2.50;99.90;;;;;;486681;244;27439;-72
2022/04/11 00:53:22;;;;;;;3.10;2.87;;;2.60;99.90;;;;;;486731;244;27974;-73
2022/04/11 00:55:24;;;;;;;2.50;2.40;;;2.60;99.90;;;;;;486729;244;27860;-73
2022/04/11 00:57:25;;;;;;;2.72;2.53;;;2.60;99.90;;;;;;486741;244;27902;-73
2022/04/11 01:01:30;;;;;;;2.40;2.20;;;2.60;99.90;;;;;;486692;244;28651;-73
2022/04/11 01:03:38;;;;;;;2.90;2.70;;;2.60;99.90;;;;;;486711;244;27954;-74
2022/04/11 01:05:39;;;;;;;4.15;3.00;;;2.70;99.90;;;;;;486750;244;27435;-73
2022/04/11 01:07:41;;;;;;;3.92;3.40;;;2.90;99.90;;;;;;486699;244;27392;-73
2022/04/11 01:09:42;;;;;;;6.10;3.15;;;3.00;99.90;;;;;;486720;244;28005;-73
2022/04/11 01:11:43;;;;;;;5.68;3.30;;;3.00;99.90;;;;;;486712;244;28039;-73
2022/04/11 01:15:51;;;;;;;3.97;3.58;;;3.10;99.90;;;;;;486714;244;27851;-73
2022/04/11 01:17:53;;;;;;;3.40;3.10;;;3.10;99.90;;;;;;486758;244;27870;-73
2022/04/11 01:20:01;;;;;;;3.20;2.95;;;3.00;99.90;;;;;;486718;244;28002;-73
2022/04/11 01:22:02;;;;;;;3.00;2.80;;;3.00;99.90;;;;;;486772;244;27515;-73
2022/04/11 01:26:17;;;;;;;3.40;3.10;;;3.10;99.90;;;;;;486769;244;27408;-73
2022/04/11 01:28:18;;;;;;;4.87;3.12;;;3.10;99.90;;;;;;486738;244;27467;-72
2022/04/11 01:32:35;;;;;;;5.95;3.60;;;3.10;99.90;;;;;;486736;244;27403;-72
2022/04/11 01:34:36;;;;;;;4.65;3.95;;;3.20;99.90;;;;;;486757;244;27489;-73
2022/04/11 01:36:39;;;;;;;4.47;3.50;;;3.20;99.90;;;;;;486746;244;28233;-73
2022/04/11 01:38:41;;;;;;;3.62;3.33;;;3.30;99.90;;;;;;486740;244;27415;-73
2022/04/11 01:40:42;;;;;;;4.05;3.40;;;3.30;99.90;;;;;;486750;244;27526;-73
2022/04/11 01:42:43;;;;;;;7.57;3.78;;;3.30;99.90;;;;;;486758;244;27447;-73
2022/04/11 01:44:50;;;;;;;3.10;2.90;;;3.30;99.90;;;;;;486761;244;27428;-73
2022/04/11 01:46:52;;;;;;;5.72;3.70;;;3.20;99.90;;;;;;486757;244;27407;-73
2022/04/11 01:48:59;;;;;;;4.03;3.58;;;3.20;99.90;;;;;;486732;244;27523;-73
2022/04/11 01:51:00;;;;;;;5.85;3.40;;;3.30;99.90;;;;;;486781;244;27459;-73
2022/04/11 01:53:01;;;;;;;3.97;3.60;;;3.30;99.90;;;;;;486771;244;27408;-73
2022/04/11 01:55:03;;;;;;;3.60;3.30;;;3.30;99.90;;;;;;486786;244;27519;-73
2022/04/11 01:57:04;;;;;;;4.15;3.75;;;3.40;99.90;;;;;;486764;244;27478;-73
2022/04/11 01:59:05;;;;;;;4.68;3.47;;;3.50;99.90;;;;;;486767;244;27435;-73
2022/04/11 02:01:06;;;;;;;3.80;3.25;;;3.40;99.90;;;;;;486795;244;28001;-73
2022/04/11 02:03:08;;;;;;;4.60;3.53;;;3.40;99.90;;;;;;486768;244;27890;-73
2022/04/11 02:05:12;;;;;;;4.53;3.50;;;3.50;99.90;;;;;;486754;244;27997;-73
2022/04/11 02:07:13;;;;;;;4.35;3.53;;;3.50;99.90;;;;;;486763;244;27444;-73
2022/04/11 02:09:24;;;;;;;4.57;3.50;;;3.50;99.90;;;;;;486761;244;27436;-73
2022/04/11 02:11:25;;;;;;;4.47;3.35;;;3.40;99.90;;;;;;486739;244;27473;-73
2022/04/11 02:13:41;;;;;;;6.53;3.05;;;3.50;99.90;;;;;;486734;244;27399;-73
2022/04/11 02:15:43;;;;;;;3.92;3.45;;;3.50;99.90;;;;;;486729;244;27436;-78
2022/04/11 02:17:46;;;;;;;3.58;3.03;;;3.50;99.90;;;;;;486766;244;27441;-73
2022/04/11 02:21:55;;;;;;;3.72;3.30;;;3.50;99.90;;;;;;486747;244;27432;-73
2022/04/11 02:24:03;;;;;;;3.20;2.95;;;3.50;99.90;;;;;;486724;244;27405;-73
2022/04/11 02:26:04;;;;;;;5.20;3.22;;;3.40;99.90;;;;;;486776;244;27399;-73
2022/04/11 02:28:15;;;;;;;4.07;3.67;;;3.50;99.90;;;;;;486729;244;27463;-74
2022/04/11 02:30:16;;;;;;;3.67;3.22;;;3.40;99.90;;;;;;486772;244;27519;-73
2022/04/11 02:32:21;;;;;;;4.00;3.37;;;3.50;99.90;;;;;;486735;244;27428;-73
2022/04/11 02:34:29;;;;;;;4.12;3.22;;;3.50;99.90;;;;;;486755;244;27411;-73
2022/04/11 02:36:29;;;;;;;9.57;3.65;;;3.50;99.90;;;;;;486710;244;27440;-73
2022/04/11 02:38:31;;;;;;;3.85;3.53;;;3.50;99.90;;;;;;486715;244;27526;-72
2022/04/11 02:40:32;;;;;;;4.75;3.10;;;3.50;99.90;;;;;;486737;244;27443;-73
2022/04/11 02:42:37;;;;;;;4.07;3.25;;;3.50;99.90;;;;;;486757;244;27462;-73
2022/04/11 02:44:38;;;;;;;3.40;3.10;;;3.60;99.90;;;;;;486746;244;27551;-73
2022/04/11 02:46:45;;;;;;;4.65;3.30;;;3.50;99.90;;;;;;486739;244;27470;-72
2022/04/11 02:48:46;;;;;;;4.97;3.45;;;3.60;99.90;;;;;;486737;244;27444;-73
2022/04/11 02:50:51;;;;;;;3.45;3.15;;;3.50;99.90;;;;;;486738;244;27419;-72
2022/04/11 02:52:51;;;;;;;3.10;2.87;;;3.50;99.90;;;;;;486710;244;27395;-73
2022/04/11 02:55:01;;;;;;;3.45;3.15;;;3.50;99.90;;;;;;486739;244;27964;-73
2022/04/11 02:57:02;;;;;;;3.25;2.95;;;3.50;99.90;;;;;;486721;244;27451;-73
2022/04/11 02:59:07;;;;;;;2.97;2.70;;;3.50;99.90;;;;;;486759;244;27398;-72
2022/04/11 03:01:08;;;;;;;3.50;3.20;;;3.60;99.90;;;;;;486747;244;27456;-73
2022/04/11 03:03:15;;;;;;;5.18;3.35;;;3.60;99.90;;;;;;486801;244;27560;-73
2022/04/11 03:05:16;;;;;;;3.10;2.90;;;3.60;99.90;;;;;;486758;244;27420;-73
2022/04/11 03:07:18;;;;;;;2.83;2.50;;;3.60;99.90;;;;;;486753;244;27405;-73
2022/04/11 03:09:20;;;;;;;3.97;2.75;;;3.60;99.90;;;;;;486730;244;27911;-73
2022/04/11 03:11:21;;;;;;;2.95;2.75;;;3.50;99.90;;;;;;486728;244;27460;-72
2022/04/11 03:15:27;;;;;;;2.62;2.42;;;3.50;99.90;;;;;;486718;244;27428;-74
2022/04/11 03:19:41;;;;;;;3.30;2.80;;;3.40;99.90;;;;;;461476;258;28086;-73
2022/04/11 03:21:42;;;;;;;2.47;2.37;;;3.40;99.90;;;;;;461356;257;27966;-73
2022/04/11 03:23:43;;;;;;;3.42;3.12;;;3.40;99.90;;;;;;461306;257;27604;-72
2022/04/11 03:25:45;;;;;;;2.90;2.60;;;3.50;99.90;;;;;;461305;258;27998;-73
2022/04/11 03:27:46;;;;;;;3.00;2.70;;;3.40;99.90;;;;;;461325;257;27626;-73
2022/04/11 03:29:48;;;;;;;4.90;2.90;;;3.40;99.90;;;;;;461348;257;27628;-73
2022/04/11 03:31:49;;;;;;;6.53;2.90;;;3.40;99.90;;;;;;461298;257;27728;-73
2022/04/11 03:33:51;;;;;;;3.70;3.30;;;3.30;99.90;;;;;;461352;257;27567;-73
2022/04/11 03:35:52;;;;;;;4.37;3.87;;;3.30;99.90;;;;;;461325;257;28185;-73
2022/04/11 03:37:53;;;;;;;3.80;3.50;;;3.30;99.90;;;;;;461367;257;27628;-73
2022/04/11 03:39:54;;;;;;;6.70;3.40;;;3.20;99.90;;;;;;461351;257;27631;-73
2022/04/11 03:41:56;;;;;;;3.87;3.53;;;3.20;99.90;;;;;;461339;257;28170;-73
2022/04/11 03:43:57;;;;;;;3.80;3.05;;;3.20;99.90;;;;;;461349;257;28036;-73
2022/04/11 03:45:58;;;;;;;3.80;3.50;;;3.20;99.90;;;;;;461391;257;28048;-73
2022/04/11 03:48:07;;;;;;;3.85;3.55;;;3.10;99.90;;;;;;461416;257;28057;-73
2022/04/11 03:50:08;;;;;;;3.80;3.50;;;3.10;99.90;;;;;;461399;257;27628;-74
2022/04/11 03:52:10;;;;;;;3.72;3.22;;;3.10;99.90;;;;;;461379;257;27643;-73
2022/04/11 03:54:10;;;;;;;2.72;2.53;;;3.10;99.90;;;;;;461337;258;27695;-73
2022/04/11 03:56:24;;;;;;;3.00;2.80;;;3.00;99.90;;;;;;461396;257;27624;-73
2022/04/11 03:58:25;;;;;;;5.72;3.42;;;3.00;99.90;;;;;;461393;257;27652;-73
2022/04/11 04:00:27;;;;;;;3.58;3.10;;;3.00;99.90;;;;;;461362;257;27603;-73
2022/04/11 04:02:28;;;;;;;3.35;3.05;;;3.00;99.90;;;;;;461412;257;28031;-73
2022/04/11 04:04:32;;;;;;;5.07;2.85;;;2.90;99.90;;;;;;461366;257;28001;-73
2022/04/11 04:06:34;;;;;;;3.12;2.92;;;2.80;99.90;;;;;;461366;257;27570;-74
2022/04/11 04:08:38;;;;;;;4.45;3.28;;;2.70;99.90;;;;;;461384;257;27610;-73
2022/04/11 04:10:40;;;;;;;2.80;2.60;;;2.60;99.90;;;;;;461374;257;27563;-72
2022/04/11 04:12:43;;;;;;;2.90;2.60;;;2.60;99.90;;;;;;461283;257;27597;-73
2022/04/11 04:14:44;;;;;;;2.90;2.70;;;2.60;99.90;;;;;;461371;257;27580;-73
2022/04/11 04:16:45;;;;;;;3.00;2.80;;;2.50;99.90;;;;;;461355;257;27647;-73
2022/04/11 04:18:47;;;;;;;3.03;2.60;;;2.50;99.90;;;;;;461368;257;27626;-72
2022/04/11 04:20:48;;;;;;;3.22;2.90;;;2.60;99.90;;;;;;461389;257;27624;-73
2022/04/11 04:22:49;;;;;;;3.25;2.95;;;2.60;99.90;;;;;;461344;257;27567;-72
2022/04/11 04:24:50;;;;;;;2.72;2.37;;;2.50;99.90;;;;;;461349;257;28144;-72
2022/04/11 04:27:10;;;;;;;3.60;2.50;;;2.50;99.90;;;;;;461381;257;28132;-72
2022/04/11 04:29:12;;;;;;;3.25;2.87;;;2.60;99.90;;;;;;461379;257;27708;-72
2022/04/11 04:33:17;;;;;;;2.90;2.70;;;2.60;99.90;;;;;;461371;257;27708;-74
2022/04/11 04:35:18;;;;;;;2.97;2.50;;;2.50;99.90;;;;;;461368;257;27567;-72
2022/04/11 04:37:20;;;;;;;2.83;2.62;;;2.50;99.90;;;;;;461377;257;27583;-72
2022/04/11 04:39:21;;;;;;;3.40;3.10;;;2.50;99.90;;;;;;461369;257;27592;-72
2022/04/11 04:41:23;;;;;;;3.33;3.03;;;2.50;99.90;;;;;;461347;257;27682;-72
2022/04/11 04:45:28;;;;;;;3.25;2.70;;;2.40;99.90;;;;;;461348;257;27607;-72
2022/04/11 04:47:29;;;;;;;3.20;2.80;;;2.30;99.90;;;;;;461340;257;27706;-72
2022/04/11 04:49:30;;;;;;;3.97;2.78;;;2.30;99.90;;;;;;461378;257;28040;-77
2022/04/11 04:51:31;;;;;;;3.20;2.90;;;2.30;99.90;;;;;;461373;257;28075;-72
2022/04/11 04:53:33;;;;;;;4.10;3.80;;;2.40;99.90;;;;;;461368;257;28186;-72
2022/04/11 04:55:34;;;;;;;3.35;3.15;;;2.40;99.90;;;;;;461393;257;28082;-73
2022/04/11 04:57:41;;;;;;;4.15;3.40;;;2.30;99.90;;;;;;461386;257;27612;-72
2022/04/11 04:59:43;;;;;;;3.40;3.20;;;2.30;99.90;;;;;;461409;257;27608;-72
2022/04/11 05:03:58;;;;;;;5.15;3.62;;;2.40;99.90;;;;;;461388;257;27601;-73
2022/04/11 05:06:00;;;;;;;6.18;4.28;;;2.50;99.90;;;;;;461396;257;27595;-72
2022/04/11 05:08:17;;;;;;;5.70;4.37;;;2.50;99.90;;;;;;461400;257;28073;-72
2022/04/11 05:10:18;;;;;;;8.95;5.53;;;2.40;99.90;;;;;;461364;257;27706;-73
2022/04/11 05:12:20;;;;;;;9.20;7.60;;;2.30;99.90;;;;;;461407;257;27621;-72
2022/04/11 05:14:21;;;;;;;15.95;8.55;;;2.40;99.90;;;;;;461403;257;28117;-72
2022/04/11 05:16:22;;;;;;;8.93;7.30;;;2.40;99.90;;;;;;461395;257;28117;-72
2022/04/11 05:18:24;;;;;;;9.70;7.03;;;2.40;99.90;;;;;;461369;257;28026;-72
2022/04/11 05:20:34;;;;;;;7.87;6.68;;;2.40;99.90;;;;;;461377;257;27657;-73
2022/04/11 05:22:35;;;;;;;7.55;5.78;;;2.50;99.90;;;;;;461409;257;27554;-72
2022/04/11 05:24:42;;;;;;;8.38;5.53;;;2.40;99.90;;;;;;461398;257;27723;-72
2022/04/11 05:26:44;;;;;;;6.45;5.70;;;2.40;99.90;;;;;;461363;257;27562;-72
2022/04/11 05:28:45;;;;;;;5.03;4.62;;;2.40;99.90;;;;;;460979;257;27916;-75
2022/04/11 05:30:46;;;;;;;5.32;4.93;;;2.40;99.90;;;;;;460789;257;27660;-73
2022/04/11 05:32:47;;;;;;;4.57;4.10;;;2.40;99.90;;;;;;461035;257;27570;-73
2022/04/11 05:34:49;;;;;;;4.93;4.47;;;2.50;99.90;;;;;;461375;257;27576;-72
2022/04/11 05:38:54;;;;;;;4.87;4.45;;;2.70;99.90;;;;;;461401;257;27658;-77
2022/04/11 05:40:58;;;;;;;6.20;4.25;;;2.90;99.90;;;;;;461411;257;27576;-73
2022/04/11 05:42:57;;;;;;;4.57;4.18;;;3.10;99.90;;;;;;460915;258;28080;-72
2022/04/11 05:45:01;;;;;;;4.65;4.25;;;3.00;99.90;;;;;;461404;257;28019;-73
2022/04/11 05:47:02;;;;;;;5.20;3.95;;;3.10;99.90;;;;;;461414;257;27676;-73
2022/04/11 05:49:03;;;;;;;5.12;4.00;;;3.30;99.90;;;;;;461378;257;27608;-72
2022/04/11 05:51:05;;;;;;;4.78;4.05;;;3.40;99.90;;;;;;461414;257;28056;-72
2022/04/11 05:53:06;;;;;;;4.85;4.00;;;3.40;99.90;;;;;;461389;257;28014;-73
2022/04/11 05:55:07;;;;;;;3.90;3.65;;;3.50;99.90;;;;;;461375;257;28066;-72
2022/04/11 05:57:09;;;;;;;4.15;3.85;;;3.50;99.90;;;;;;461382;257;28030;-72
2022/04/11 05:59:10;;;;;;;4.47;4.07;;;3.60;99.90;;;;;;461357;257;27678;-73
2022/04/11 06:01:12;;;;;;;5.87;4.20;;;3.70;99.90;;;;;;461407;257;27609;-72
2022/04/11 06:03:13;;;;;;;7.07;4.20;;;3.90;99.90;;;;;;461396;257;27601;-72
2022/04/11 06:05:14;;;;;;;4.80;4.05;;;4.00;99.90;;;;;;461376;257;27647;-73
2022/04/11 06:07:16;;;;;;;4.78;3.87;;;3.90;99.90;;;;;;461384;257;27605;-73
2022/04/11 06:09:17;;;;;;;4.68;4.28;;;4.00;99.90;;;;;;461383;257;27556;-73
2022/04/11 06:11:18;;;;;;;6.80;4.50;;;4.10;99.90;;;;;;461394;257;28047;-72
2022/04/11 06:13:32;;;;;;;3.90;3.60;;;4.00;99.90;;;;;;461396;257;28059;-73
2022/04/11 06:15:33;;;;;;;7.68;4.37;;;4.20;99.90;;;;;;461393;257;27723;-73
2022/04/11 06:17:34;;;;;;;4.90;3.90;;;4.20;99.90;;;;;;461381;257;27597;-72
2022/04/11 06:19:39;;;;;;;4.82;4.37;;;4.20;99.90;;;;;;461382;257;28030;-72
2022/04/11 06:21:40;;;;;;;5.15;4.07;;;4.30;99.90;;;;;;461374;257;27736;-72
2022/04/11 06:23:41;;;;;;;3.83;3.53;;;4.30;99.90;;;;;;461375;257;27579;-72
2022/04/11 06:25:45;;;;;;;4.50;4.03;;;4.40;99.90;;;;;;461363;257;28159;-73
2022/04/11 06:27:47;;;;;;;8.35;3.42;;;4.40;99.90;;;;;;461377;257;27605;-72
2022/04/11 06:29:48;;;;;;;4.20;3.28;;;4.40;99.90;;;;;;461379;257;27630;-72
2022/04/11 06:31:49;;;;;;;3.90;3.60;;;4.40;99.90;;;;;;461387;257;28076;-73
2022/04/11 06:33:56;;;;;;;4.57;3.80;;;4.40;99.90;;;;;;461373;257;28075;-73
2022/04/11 06:35:58;;;;;;;4.95;4.55;;;4.50;99.90;;;;;;461400;257;27580;-73
2022/04/11 06:37:59;;;;;;;5.87;4.03;;;4.70;99.90;;;;;;461359;257;27604;-73
2022/04/11 06:40:02;;;;;;;4.65;4.25;;;4.70;99.90;;;;;;461404;257;28142;-73
2022/04/11 06:42:04;;;;;;;4.57;4.15;;;4.80;99.90;;;;;;461237;258;28033;-73
2022/04/11 06:44:06;;;;;;;4.70;4.25;;;4.80;99.90;;;;;;461386;257;27573;-73
2022/04/11 06:46:07;;;;;;;5.00;4.00;;;4.90;99.90;;;;;;461349;257;27727;-73
2022/04/11 06:48:09;;;;;;;6.10;4.37;;;4.90;99.90;;;;;;461389;257;27644;-73
2022/04/11 06:50:10;;;;;;;5.30;4.30;;;4.90;99.90;;;;;;461399;257;27567;-73
2022/04/11 06:52:11;;;;;;;4.90;4.07;;;5.00;99.90;;;;;;461303;258;28037;-73
2022/04/11 06:54:18;;;;;;;5.30;4.80;;;5.00;99.90;;;;;;461353;257;28038;-73
2022/04/11 06:56:19;;;;;;;6.40;4.50;;;5.00;99.90;;;;;;461383;257;27611;-73
2022/04/11 06:58:21;;;;;;;7.00;4.60;;;5.20;99.90;;;;;;461403;257;27682;-72
2022/04/11 07:00:22;;;;;;;5.25;4.85;;;5.20;99.90;;;;;;461393;257;28087;-73
2022/04/11 07:02:23;;;;;;;4.30;3.90;;;5.30;99.90;;;;;;461376;257;28144;-72
2022/04/11 07:04:24;;;;;;;4.72;4.07;;;5.30;99.90;;;;;;461410;257;28148;-73
2022/04/11 07:06:26;;;;;;;4.12;3.67;;;5.20;99.90;;;;;;461346;257;28113;-73
2022/04/11 07:08:27;;;;;;;5.78;4.03;;;5.30;99.90;;;;;;461403;257;27629;-73
2022/04/11 07:10:31;;;;;;;4.40;3.83;;;5.40;99.90;;;;;;461397;257;27708;-72
2022/04/11 07:12:31;;;;;;;6.40;4.00;;;5.50;99.90;;;;;;461377;258;27608;-71
2022/04/11 07:14:33;;;;;;;6.35;4.20;;;5.60;99.90;;;;;;461389;257;28017;-72
2022/04/11 07:16:34;;;;;;;4.53;3.80;;;5.50;99.90;;;;;;461389;257;28095;-74
2022/04/11 07:18:36;;;;;;;5.05;4.10;;;5.60;99.90;;;;;;461421;257;28205;-74
2022/04/11 07:20:38;;;;;;;5.15;3.92;;;5.50;99.90;;;;;;461425;257;27673;-71
2022/04/11 07:22:38;;;;;;;7.55;4.30;;;5.70;99.90;;;;;;461312;258;27692;-72
2022/04/11 07:24:39;;;;;;;4.10;3.60;;;5.80;99.90;;;;;;461397;257;27642;-74
2022/04/11 07:26:43;;;;;;;4.55;3.72;;;5.70;99.90;;;;;;461416;257;27612;-74
2022/04/11 07:28:47;;;;;;;4.55;4.10;;;5.60;99.90;;;;;;461452;257;27577;-75
2022/04/11 07:30:46;;;;;;;3.72;3.28;;;5.80;99.90;;;;;;461308;258;28150;-74
2022/04/11 07:32:47;;;;;;;4.43;4.00;;;5.80;99.90;;;;;;461411;257;28113;-74
2022/04/11 07:34:48;;;;;;;7.20;4.40;;;5.90;99.90;;;;;;461377;257;28118;-74
2022/04/11 07:36:50;;;;;;;4.25;3.95;;;5.90;99.90;;;;;;461385;257;27635;-74
2022/04/11 07:38:51;;;;;;;4.65;4.25;;;6.00;99.90;;;;;;461411;257;27608;-74
2022/04/11 07:40:58;;;;;;;7.07;4.55;;;6.10;99.90;;;;;;461393;257;27607;-75
2022/04/11 07:42:59;;;;;;;5.57;3.95;;;6.20;99.90;;;;;;461386;257;27568;-74
2022/04/11 07:45:01;;;;;;;4.10;3.72;;;6.20;99.90;;;;;;461373;257;27697;-74
2022/04/11 07:47:02;;;;;;;5.15;4.45;;;6.50;99.90;;;;;;461376;257;28403;-74
2022/04/11 07:49:09;;;;;;;4.65;3.80;;;6.50;99.90;;;;;;461427;257;28099;-74
2022/04/11 07:51:10;;;;;;;4.60;3.53;;;6.60;99.90;;;;;;461354;257;27568;-74
2022/04/11 07:53:11;;;;;;;4.28;3.80;;;6.50;99.90;;;;;;461341;257;28043;-74
2022/04/11 07:55:15;;;;;;;4.10;3.75;;;6.40;99.90;;;;;;461155;258;28135;-74
2022/04/11 07:57:14;;;;;;;3.50;3.30;;;6.50;99.90;;;;;;461226;258;28169;-74
2022/04/11 07:59:16;;;;;;;4.30;3.83;;;6.60;99.90;;;;;;461377;257;27590;-74
2022/04/11 08:01:17;;;;;;;3.97;3.67;;;6.70;99.90;;;;;;461414;257;27590;-74
2022/04/11 08:03:24;;;;;;;7.82;4.05;;;6.80;99.90;;;;;;461403;257;28024;-74
2022/04/11 08:05:25;;;;;;;4.95;4.07;;;6.80;99.90;;;;;;461417;257;27685;-74
2022/04/11 08:07:26;;;;;;;4.80;3.80;;;6.90;99.90;;;;;;461376;257;28014;-73
2022/04/11 08:09:27;;;;;;;4.28;3.90;;;7.00;99.90;;;;;;461385;257;28065;-73
2022/04/11 08:11:29;;;;;;;4.22;3.90;;;7.20;99.90;;;;;;461414;257;27665;-74
2022/04/11 08:13:30;;;;;;;4.20;3.87;;;7.30;99.90;;;;;;461420;257;27568;-73
2022/04/11 08:15:38;;;;;;;6.68;3.95;;;7.30;99.90;;;;;;461391;257;28993;-74
2022/04/11 08:17:39;;;;;;;4.93;3.45;;;7.30;99.90;;;;;;461391;257;27559;-74
2022/04/11 08:19:40;;;;;;;4.87;3.55;;;7.40;99.90;;;;;;461400;257;27692;-74
2022/04/11 08:21:48;;;;;;;4.50;3.50;;;7.50;99.90;;;;;;461417;257;27594;-75
2022/04/11 08:23:49;;;;;;;4.15;3.75;;;7.60;99.90;;;;;;461424;257;28954;-74
2022/04/11 08:25:52;;;;;;;4.00;3.35;;;7.70;99.90;;;;;;461393;257;28076;-74
2022/04/11 08:27:57;;;;;;;6.70;3.30;;;7.60;99.90;;;;;;461361;258;28044;-74
2022/04/11 08:29:59;;;;;;;2.80;2.60;;;7.70;99.90;;;;;;461446;257;27573;-74
2022/04/11 08:32:06;;;;;;;3.80;2.90;;;7.90;99.90;;;;;;461421;257;28032;-74
2022/04/11 08:34:07;;;;;;;3.33;3.00;;;7.90;99.90;;;;;;461418;257;28491;-74
2022/04/11 08:38:13;;;;;;;4.17;2.70;;;8.00;99.90;;;;;;461415;257;27958;-74
2022/04/11 08:40:14;;;;;;;5.10;2.87;;;7.80;99.90;;;;;;461434;257;27837;-76
2022/04/11 08:42:17;;;;;;;3.10;2.70;;;8.10;99.90;;;;;;461442;257;28104;-74
2022/04/11 08:44:19;;;;;;;2.80;2.60;;;8.20;99.90;;;;;;461348;258;29291;-74
2022/04/11 08:46:29;;;;;;;2.63;2.43;;;8.20;99.90;;;;;;460624;258;28475;-74
2022/04/11 08:48:30;;;;;;;3.20;2.90;;;8.20;99.90;;;;;;461308;258;28332;-74
2022/04/11 08:50:31;;;;;;;3.90;2.43;;;8.40;99.90;;;;;;461385;257;28401;-74
2022/04/11 08:52:38;;;;;;;5.00;2.73;;;8.50;99.90;;;;;;461410;257;28654;-74
2022/04/11 08:54:40;;;;;;;2.50;2.30;;;8.70;99.90;;;;;;461404;257;28178;-74
2022/04/11 08:56:43;;;;;;;2.60;2.40;;;8.60;99.90;;;;;;461367;257;27715;-74
2022/04/11 08:58:44;;;;;;;7.40;3.00;;;8.50;99.90;;;;;;461389;257;28267;-74
2022/04/11 09:00:45;;;;;;;2.60;2.30;;;8.60;99.90;;;;;;461393;257;27950;-74
2022/04/11 09:02:47;;;;;;;2.70;2.37;;;8.70;99.90;;;;;;461409;257;28103;-74
2022/04/11 09:04:49;;;;;;;2.90;2.07;;;8.90;99.90;;;;;;461385;257;28457;-74
2022/04/11 09:06:49;;;;;;;2.27;2.07;;;8.70;99.90;;;;;;461357;257;28520;-74
2022/04/11 09:08:58;;;;;;;2.93;2.07;;;8.70;99.90;;;;;;461391;257;29271;-74
2022/04/11 09:11:00;;;;;;;1.97;1.87;;;8.90;99.90;;;;;;461420;257;28010;-74
2022/04/11 09:13:07;;;;;;;2.90;2.07;;;8.90;99.90;;;;;;461399;257;28090;-74
2022/04/11 09:15:08;;;;;;;2.13;2.00;;;9.00;99.90;;;;;;461403;257;28050;-74
2022/04/11 09:17:09;;;;;;;2.53;2.07;;;9.10;99.90;;;;;;461408;257;27592;-74
2022/04/11 09:19:11;;;;;;;2.60;2.00;;;9.00;99.90;;;;;;461400;257;28068;-74
2022/04/11 09:21:18;;;;;;;2.10;1.90;;;9.20;99.90;;;;;;461388;257;28203;-74
2022/04/11 09:23:19;;;;;;;3.73;2.07;;;9.10;99.90;;;;;;461398;257;28240;-74
2022/04/11 09:25:23;;;;;;;3.47;2.30;;;9.40;99.90;;;;;;461354;257;28030;-74
2022/04/11 09:27:25;;;;;;;3.00;2.00;;;9.30;99.90;;;;;;461415;257;27726;-74
2022/04/11 09:29:26;;;;;;;2.20;2.10;;;9.30;99.90;;;;;;461387;257;28190;-75
2022/04/11 09:31:27;;;;;;;1.90;1.60;;;9.30;99.90;;;;;;461353;258;28054;-74
2022/04/11 09:35:33;;;;;;;2.07;1.90;;;9.60;99.90;;;;;;461382;257;28160;-74
2022/04/11 09:37:40;;;;;;;4.00;2.30;;;9.70;99.90;;;;;;461431;257;28177;-75
2022/04/11 09:39:44;;;;;;;2.73;2.10;;;9.90;99.90;;;;;;461415;257;28005;-74
2022/04/11 09:41:51;;;;;;;2.70;1.93;;;9.70;99.90;;;;;;461278;258;28057;-74
2022/04/11 09:43:52;;;;;;;2.40;2.17;;;9.60;99.90;;;;;;461407;257;28058;-74
2022/04/11 09:45:57;;;;;;;2.07;1.80;;;9.80;99.90;;;;;;461419;257;28123;-74
2022/04/11 09:47:58;;;;;;;1.90;1.80;;;9.80;99.90;;;;;;461432;257;28240;-74
2022/04/11 09:49:59;;;;;;;2.33;2.13;;;9.80;99.90;;;;;;461418;257;28124;-74
2022/04/11 09:52:11;;;;;;;2.10;1.90;;;9.80;99.90;;;;;;461436;257;28217;-74
2022/04/11 09:54:08;;;;;;;2.60;2.37;;;9.90;99.90;;;;;;460837;258;27899;-74
2022/04/11 09:56:14;;;;;;;1.80;1.70;;;9.90;99.90;;;;;;461413;257;27811;-74
2022/04/11 09:58:16;;;;;;;2.27;1.90;;;9.90;99.90;;;;;;461434;257;27850;-74
2022/04/11 10:00:19;;;;;;;1.77;1.67;;;9.80;99.90;;;;;;461369;257;27715;-74
2022/04/11 10:02:21;;;;;;;2.90;1.63;;;9.80;99.90;;;;;;461427;257;27996;-74
2022/04/11 10:04:22;;;;;;;4.23;2.10;;;9.90;99.90;;;;;;461439;257;28022;-74
2022/04/11 10:06:35;;;;;;;2.03;1.93;;;10.00;99.90;;;;;;461430;257;28090;-74
2022/04/11 10:08:36;;;;;;;4.87;2.03;;;10.00;99.90;;;;;;461381;257;28079;-79
2022/04/11 10:10:47;;;;;;;2.70;2.23;;;10.10;99.90;;;;;;461483;257;28043;-74
2022/04/11 10:12:48;;;;;;;2.50;2.30;;;10.20;99.90;;;;;;461455;257;28076;-74
2022/04/11 10:14:50;;;;;;;2.67;2.20;;;10.10;99.90;;;;;;461458;257;28091;-74
2022/04/11 10:16:55;;;;;;;2.60;2.23;;;10.30;99.90;;;;;;461447;257;27975;-74
2022/04/11 10:18:59;;;;;;;2.70;2.40;;;10.40;99.90;;;;;;461452;257;27973;-74
2022/04/11 10:21:00;;;;;;;2.40;2.20;;;10.30;99.90;;;;;;461468;257;28502;-74
2022/04/11 10:23:19;;;;;;;2.60;2.00;;;10.50;99.90;;;;;;461431;257;28264;-74
2022/04/11 10:25:21;;;;;;;2.43;2.10;;;10.60;99.90;;;;;;461422;257;27956;-74
2022/04/11 10:29:29;;;;;;;2.20;2.10;;;10.80;99.90;;;;;;461448;257;28116;-78
2022/04/11 10:31:36;;;;;;;2.30;2.10;;;10.70;99.90;;;;;;461461;257;28187;-74
2022/04/11 10:33:37;;;;;;;1.90;1.80;;;10.60;99.90;;;;;;461434;257;28064;-74
2022/04/11 10:35:44;;;;;;;2.47;1.70;;;10.70;99.90;;;;;;461401;257;27974;-74
2022/04/11 10:37:46;;;;;;;2.20;1.60;;;10.80;99.90;;;;;;461439;257;28174;-74
2022/04/11 10:41:57;;;;;;;2.20;2.00;;;10.80;99.90;;;;;;461418;257;28104;-74
2022/04/11 10:44:05;;;;;;;2.30;1.97;;;10.80;99.90;;;;;;461409;257;28133;-74
2022/04/11 10:46:07;;;;;;;2.43;1.90;;;11.10;99.90;;;;;;461480;257;28500;-74
2022/04/11 10:48:14;;;;;;;2.23;2.07;;;11.10;99.90;;;;;;461423;257;28597;-75
2022/04/11 10:50:15;;;;;;;1.93;1.77;;;10.90;99.90;;;;;;461446;257;28223;-74
2022/04/11 10:52:24;;;;;;;2.53;2.07;;;11.00;99.90;;;;;;461427;257;28204;-75
2022/04/11 10:54:26;;;;;;;1.93;1.83;;;11.00;99.90;;;;;;461403;257;28783;-74
2022/04/11 10:56:45;;;;;;;2.20;2.00;;;11.20;99.90;;;;;;461413;257;28781;-74
2022/04/11 10:58:47;;;;;;;2.10;1.90;;;11.10;99.90;;;;;;461451;257;28092;-74
2022/04/11 11:03:02;;;;;;;2.00;1.90;;;11.10;99.90;;;;;;461415;257;28094;-74
2022/04/11 11:05:06;;;;;;;2.10;1.90;;;11.10;99.90;;;;;;461386;257;28185;-74
2022/04/11 11:07:08;;;;;;;2.63;2.30;;;11.30;99.90;;;;;;461442;257;28182;-74
2022/04/11 11:11:20;;;;;;;2.20;2.10;;;11.40;99.90;;;;;;461421;257;28183;-74
2022/04/11 11:15:50;;;;;;;2.13;1.93;;;11.40;99.90;;;;;;461412;258;28568;-74
2022/04/11 11:17:58;;;;;;;4.20;2.00;;;11.30;99.90;;;;;;461412;257;27947;-74
2022/04/11 11:19:59;;;;;;;1.97;1.77;;;11.30;99.90;;;;;;461440;257;28052;-74
2022/04/11 11:22:07;;;;;;;1.90;1.80;;;11.50;99.90;;;;;;461414;257;27928;-74
2022/04/11 11:24:08;;;;;;;3.23;1.70;;;11.40;99.90;;;;;;461397;257;28090;-74